Time;durP1;ratioP1;P1;durP2;ratioP2;P2;SDS_P1;SDS_P2;PMS_P1;PMS_P2;Temp;Humidity;BMP_temperature;BMP_pressure;BME280_temperature;BME280_humidity;BME280_pressure;Samples;Min_cycle;Max_cycle;Signal;HPM_P1;HPM_P2
2021/07/20 00:02:43;;;;;;;17.52;12.15;;;;;;;20.69;83.63;99068.20;1746795;82;21549;-68
2021/07/20 00:05:11;;;;;;;20.82;13.03;;;;;;;20.70;83.64;99069.02;1735683;82;20991;-69
2021/07/20 00:07:39;;;;;;;17.12;12.33;;;;;;;20.67;83.40;99061.43;1738788;82;21047;-69
2021/07/20 00:10:12;;;;;;;18.60;12.58;;;;;;;20.62;83.28;99059.72;1719028;82;20983;-69
2021/07/20 00:12:38;;;;;;;20.23;13.45;;;;;;;20.62;83.30;99054.19;1746691;82;21026;-69
2021/07/20 00:15:10;;;;;;;18.57;12.30;;;;;;;20.65;83.26;99055.47;1735891;82;21581;-69
2021/07/20 00:17:39;;;;;;;25.02;12.65;;;;;;;20.65;83.05;99054.08;1742894;82;21035;-69
2021/07/20 00:20:06;;;;;;;18.80;13.30;;;;;;;20.62;82.82;99047.27;1746839;82;20999;-69
2021/07/20 00:22:33;;;;;;;19.85;12.88;;;;;;;20.56;82.67;99050.08;1718246;82;21023;-69
2021/07/20 00:24:59;;;;;;;21.02;12.88;;;;;;;20.50;82.63;99052.89;1738006;82;21444;-69
2021/07/20 00:27:25;;;;;;;20.40;13.13;;;;;;;20.43;82.75;99053.27;1731531;82;21030;-69
2021/07/20 00:29:52;;;;;;;21.45;13.08;;;;;;;20.39;82.92;99055.13;1746050;82;21451;-69
2021/07/20 00:32:18;;;;;;;22.58;13.03;;;;;;;20.42;83.05;99069.63;1737752;82;21027;-69
2021/07/20 00:34:45;;;;;;;22.93;13.25;;;;;;;20.43;83.07;99072.05;1720544;82;21506;-69
2021/07/20 00:37:11;;;;;;;20.60;13.55;;;;;;;20.45;82.91;99074.44;1721213;82;21059;-69
2021/07/20 00:39:38;;;;;;;20.95;12.60;;;;;;;20.45;82.84;99075.25;1696498;82;21456;-69
2021/07/20 00:42:05;;;;;;;19.95;12.78;;;;;;;20.45;82.81;99069.72;1747340;82;21015;-69
2021/07/20 00:44:33;;;;;;;22.58;12.82;;;;;;;20.46;82.83;99075.48;1740191;82;21473;-69
2021/07/20 00:46:59;;;;;;;21.33;12.18;;;;;;;20.48;82.80;99069.58;1731810;82;21003;-69
2021/07/20 00:49:26;;;;;;;17.77;13.00;;;;;;;20.42;82.55;99070.43;1735137;82;21550;-69
2021/07/20 00:51:52;;;;;;;17.12;12.05;;;;;;;20.33;82.52;99064.27;1750513;81;21082;-69
2021/07/20 00:54:19;;;;;;;19.92;12.20;;;;;;;20.26;82.69;99064.03;1759588;81;21019;-69
2021/07/20 00:56:46;;;;;;;18.65;11.83;;;;;;;20.20;82.82;99056.55;1747438;81;21536;-69
2021/07/20 00:59:13;;;;;;;19.87;11.57;;;;;;;20.15;82.95;99063.73;1750743;81;20974;-69
2021/07/20 01:01:41;;;;;;;15.05;11.15;;;;;;;20.10;82.98;99059.02;1737053;81;21046;-69
2021/07/20 01:04:08;;;;;;;17.35;11.03;;;;;;;20.03;83.06;99054.66;1726637;81;21035;-69
2021/07/20 01:06:34;;;;;;;17.37;10.85;;;;;;;19.99;83.16;99042.13;1736198;81;21592;-69
2021/07/20 01:09:03;;;;;;;19.62;11.93;;;;;;;19.98;83.22;99047.42;1759744;81;21572;-69
2021/07/20 01:11:33;;;;;;;20.15;12.20;;;;;;;19.95;83.30;99037.64;1702014;83;21031;-69
2021/07/20 01:14:01;;;;;;;19.05;11.70;;;;;;;19.87;83.55;99036.05;1712602;83;21481;-69
2021/07/20 01:16:29;;;;;;;15.60;11.33;;;;;;;19.83;83.75;99036.55;1698183;84;21081;-69
2021/07/20 01:18:56;;;;;;;19.02;12.28;;;;;;;19.80;83.83;99035.84;1690799;84;21584;-69
2021/07/20 01:21:25;;;;;;;20.02;11.78;;;;;;;19.77;83.98;99039.31;1663947;85;21049;-69
2021/07/20 01:23:52;;;;;;;17.02;11.85;;;;;;;19.74;84.09;99040.58;1668196;85;20969;-69
2021/07/20 01:26:21;;;;;;;18.17;11.48;;;;;;;19.77;84.40;99037.12;1673943;84;21607;-69
2021/07/20 01:28:49;;;;;;;19.77;11.75;;;;;;;19.83;84.53;99039.31;1722947;82;21033;-69
2021/07/20 01:31:18;;;;;;;16.35;11.10;;;;;;;19.92;84.56;99038.34;1668881;84;20970;-69
2021/07/20 01:33:47;;;;;;;18.40;11.15;;;;;;;19.99;84.51;99038.55;1692294;84;21646;-69
2021/07/20 01:36:16;;;;;;;15.43;10.95;;;;;;;20.05;84.34;99045.47;1693495;84;21046;-69
2021/07/20 01:38:46;;;;;;;15.45;10.28;;;;;;;20.04;84.07;99042.47;1706667;84;21019;-69
2021/07/20 01:41:15;;;;;;;17.98;11.33;;;;;;;20.04;84.05;99039.70;1695071;84;21428;-69
2021/07/20 01:43:45;;;;;;;17.32;10.90;;;;;;;20.00;83.90;99042.36;1695313;84;21055;-69
2021/07/20 01:46:12;;;;;;;16.82;10.78;;;;;;;19.95;83.94;99043.17;1677404;84;20983;-69
2021/07/20 01:48:42;;;;;;;14.93;10.00;;;;;;;19.97;84.15;99040.87;1705876;84;21023;-69
2021/07/20 01:51:10;;;;;;;17.27;10.63;;;;;;;19.97;84.07;99039.50;1699563;84;21003;-69
2021/07/20 01:53:37;;;;;;;16.35;10.63;;;;;;;19.99;84.06;99059.27;1693450;83;21510;-69
2021/07/20 01:56:05;;;;;;;15.65;10.30;;;;;;;20.01;84.16;99059.17;1727575;82;20944;-69
2021/07/20 01:58:42;;;;;;;15.55;9.63;;;;;;;20.04;84.06;99052.13;1743486;82;21034;-69
2021/07/20 02:01:43;;;;;;;15.65;10.30;;;;;;;20.06;84.03;99061.67;1724499;82;20948;-69
2021/07/20 02:09:30;;;;;;;12.65;10.00;;;;;;;19.93;83.65;99054.59;1685214;82;21044;-69
2021/07/20 02:11:58;;;;;;;15.45;9.98;;;;;;;19.83;83.49;99050.36;1721730;82;21039;-69
2021/07/20 02:14:30;;;;;;;18.55;10.00;;;;;;;19.76;83.50;99059.81;1704208;83;21015;-69
2021/07/20 02:17:12;;;;;;;15.53;9.80;;;;;;;19.70;83.60;99055.66;1693415;84;21123;-69
2021/07/20 02:20:01;;;;;;;13.65;9.70;;;;;;;19.61;83.85;99049.48;1689659;84;20992;-69
2021/07/20 02:22:29;;;;;;;16.23;9.90;;;;;;;19.58;84.06;99043.85;1671587;84;21640;-69
2021/07/20 02:24:57;;;;;;;13.72;10.53;;;;;;;19.54;84.19;99052.02;1665890;85;21535;-69
2021/07/20 02:27:24;;;;;;;15.15;10.05;;;;;;;19.52;84.42;99050.77;1671355;84;21075;-69
2021/07/20 02:30:01;;;;;;;14.73;10.50;;;;;;;19.55;84.73;99059.73;1671310;84;20971;-69
2021/07/20 02:32:29;;;;;;;14.75;10.18;;;;;;;19.56;84.89;99060.75;1737589;82;21047;-69
2021/07/20 02:34:57;;;;;;;15.15;10.15;;;;;;;19.55;85.04;99066.63;1708692;82;20952;-69
2021/07/20 02:37:27;;;;;;;16.10;9.55;;;;;;;19.57;85.09;99065.70;1729995;82;21016;-69
2021/07/20 02:39:54;;;;;;;20.08;9.88;;;;;;;19.57;85.08;99068.45;1693916;82;20991;-69
2021/07/20 02:42:21;;;;;;;14.70;11.18;;;;;;;19.59;85.09;99072.47;1744448;82;21046;-69
2021/07/20 02:44:49;;;;;;;14.75;10.53;;;;;;;19.59;85.05;99073.85;1708576;82;20991;-69
2021/07/20 02:47:17;;;;;;;16.17;10.45;;;;;;;19.60;85.02;99078.23;1742244;82;21665;-69
2021/07/20 02:49:44;;;;;;;15.55;8.88;;;;;;;19.61;85.01;99071.56;1737622;82;20952;-69
2021/07/20 02:52:10;;;;;;;12.85;10.63;;;;;;;19.64;85.02;99072.82;1739849;82;21038;-69
2021/07/20 02:54:38;;;;;;;18.05;11.05;;;;;;;19.68;84.94;99080.64;1728532;82;20952;-69
2021/07/20 02:57:06;;;;;;;13.10;10.58;;;;;;;19.71;85.00;99077.99;1704678;82;21042;-69
2021/07/20 02:59:34;;;;;;;14.45;11.20;;;;;;;19.80;85.03;99084.78;1737428;82;21006;-69
2021/07/20 03:02:11;;;;;;;14.95;10.65;;;;;;;19.88;84.91;99083.81;1728107;82;21580;-69
2021/07/20 03:04:38;;;;;;;13.85;9.83;;;;;;;19.91;84.68;99080.36;1735222;82;20923;-69
2021/07/20 03:07:08;;;;;;;14.25;10.95;;;;;;;19.90;84.58;99077.39;1735179;82;21030;-69
2021/07/20 03:09:37;;;;;;;17.48;10.93;;;;;;;19.88;84.50;99074.15;1738119;82;20931;-69
2021/07/20 03:12:09;;;;;;;14.03;10.35;;;;;;;19.91;84.49;99078.97;1704933;82;21529;-69
2021/07/20 03:14:37;;;;;;;18.02;11.03;;;;;;;19.97;84.47;99080.36;1711330;83;20940;-69
2021/07/20 03:17:05;;;;;;;15.60;10.45;;;;;;;20.02;84.35;99062.71;1735258;82;21098;-69
2021/07/20 03:19:31;;;;;;;14.40;10.18;;;;;;;20.03;84.19;99055.47;1697514;83;20951;-69
2021/07/20 03:22:03;;;;;;;15.40;10.13;;;;;;;20.07;84.22;99050.86;1729213;82;21043;-69
2021/07/20 03:24:34;;;;;;;13.13;10.23;;;;;;;20.14;84.14;99049.68;1725196;82;20975;-69
2021/07/20 03:27:05;;;;;;;14.33;9.70;;;;;;;20.21;84.13;99057.36;1731079;82;21055;-69
2021/07/20 03:29:40;;;;;;;13.00;10.03;;;;;;;20.33;84.27;99058.13;1718671;82;20998;-69
2021/07/20 03:32:03;;;;;;;10.70;9.40;;;;;;;20.50;84.27;99072.24;1701368;82;21110;-69
2021/07/20 03:34:29;;;;;;;13.72;10.25;;;;;;;20.70;84.23;99073.97;1738681;82;20967;-69
2021/07/20 03:36:57;;;;;;;14.93;10.08;;;;;;;20.93;84.13;99083.88;1741628;82;20995;-69
2021/07/20 03:39:25;;;;;;;14.10;11.33;;;;;;;21.13;83.81;99081.44;1753667;82;21011;-69
2021/07/20 03:41:52;;;;;;;13.28;10.30;;;;;;;21.33;83.60;99083.70;1746963;82;21620;-69
2021/07/20 03:44:18;;;;;;;14.33;10.25;;;;;;;21.50;83.07;99092.23;1739796;82;21037;-69
2021/07/20 03:46:45;;;;;;;14.50;9.90;;;;;;;21.62;82.26;99092.91;1746865;82;21063;-69
2021/07/20 03:49:13;;;;;;;14.03;9.88;;;;;;;21.69;81.35;99083.39;1752548;81;21604;-69
2021/07/20 03:51:42;;;;;;;12.10;9.38;;;;;;;21.67;80.51;99078.80;1724167;82;21633;-69
2021/07/20 03:54:09;;;;;;;12.88;9.80;;;;;;;21.63;80.00;99071.56;1737114;82;21023;-70
2021/07/20 03:56:40;;;;;;;15.00;10.32;;;;;;;21.64;79.91;99069.03;1748837;81;20952;-69
2021/07/20 03:59:08;;;;;;;12.82;10.58;;;;;;;21.73;79.83;99066.84;1734017;81;20988;-69
2021/07/20 04:01:38;;;;;;;12.15;10.50;;;;;;;21.92;79.85;99070.27;1747319;82;20955;-69
2021/07/20 04:04:07;;;;;;;11.80;9.95;;;;;;;22.21;79.50;99072.48;1728443;82;21002;-68
2021/07/20 04:06:41;;;;;;;12.23;9.70;;;;;;;22.52;78.65;99082.61;1744323;82;21058;-69
2021/07/20 04:09:24;;;;;;;11.95;10.25;;;;;;;22.72;77.62;99088.37;1716255;82;20991;-69
2021/07/20 04:12:08;;;;;;;12.33;10.88;;;;;;;22.72;76.33;99095.30;1702884;83;21027;-70
2021/07/20 04:14:43;;;;;;;15.78;10.75;;;;;;;22.61;76.15;99104.78;1733162;82;21002;-70
2021/07/20 04:17:10;;;;;;;13.15;10.05;;;;;;;22.78;76.53;99106.31;1752995;82;21059;-70
2021/07/20 04:19:36;;;;;;;14.05;10.60;;;;;;;22.99;76.03;99103.16;1739683;82;20996;-70
2021/07/20 04:22:08;;;;;;;12.13;10.05;;;;;;;23.15;75.10;99096.88;1707042;82;21003;-70
2021/07/20 04:24:34;;;;;;;11.55;10.08;;;;;;;23.22;74.39;99105.33;1746652;82;20944;-70
2021/07/20 04:27:02;;;;;;;13.58;10.43;;;;;;;23.19;73.81;99102.72;1701897;82;21078;-69
2021/07/20 04:29:30;;;;;;;11.25;9.18;;;;;;;23.16;73.84;99106.83;1751116;82;21015;-70
2021/07/20 04:32:01;;;;;;;12.80;9.65;;;;;;;23.28;73.76;99108.01;1742853;82;21071;-70
2021/07/20 04:34:28;;;;;;;13.32;10.50;;;;;;;23.36;73.29;99098.62;1737610;82;21038;-70
2021/07/20 04:36:54;;;;;;;14.78;11.63;;;;;;;23.33;72.68;99104.93;1725681;82;21031;-70
2021/07/20 04:39:22;;;;;;;14.65;10.88;;;;;;;23.31;72.77;99113.62;1720468;82;20983;-70
2021/07/20 04:41:50;;;;;;;12.70;10.60;;;;;;;23.40;72.96;99109.21;1723664;83;21071;-70
2021/07/20 04:44:19;;;;;;;14.13;10.65;;;;;;;23.61;72.43;99112.95;1724357;82;20995;-71
2021/07/20 04:46:48;;;;;;;11.85;10.63;;;;;;;23.71;72.08;99099.22;1713071;82;21051;-70
2021/07/20 04:49:15;;;;;;;12.05;10.43;;;;;;;23.76;72.10;99097.52;1740157;82;21071;-70
2021/07/20 04:51:43;;;;;;;14.70;10.90;;;;;;;23.93;72.10;99105.09;1723510;83;21075;-70
2021/07/20 04:54:10;;;;;;;11.50;9.78;;;;;;;23.93;72.10;99105.09;1743371;82;21027;-70
2021/07/20 04:56:37;;;;;;;14.20;10.25;;;;;;;24.09;71.29;99099.55;1723613;83;21015;-70
2021/07/20 04:59:03;;;;;;;14.10;10.70;;;;;;;24.25;70.93;99091.06;1724092;82;21046;-70
2021/07/20 05:01:33;;;;;;;15.38;11.57;;;;;;;24.25;70.93;99091.06;1751269;82;21007;-70
2021/07/20 05:04:01;;;;;;;13.98;11.50;;;;;;;24.37;70.17;99096.98;1738804;81;20991;-70
2021/07/20 05:06:29;;;;;;;13.72;10.55;;;;;;;24.44;70.01;99103.44;1710573;82;20950;-70
2021/07/20 05:08:56;;;;;;;11.83;10.55;;;;;;;24.61;69.73;99100.64;1743497;82;20983;-71
2021/07/20 05:11:22;;;;;;;13.40;10.65;;;;;;;24.77;68.77;99097.84;1748080;82;21843;-70
2021/07/20 05:13:49;;;;;;;12.80;10.58;;;;;;;24.83;68.66;99098.89;1732353;82;21038;-70
2021/07/20 05:16:18;;;;;;;11.83;10.53;;;;;;;24.89;68.21;99110.72;1732850;82;21482;-71
2021/07/20 05:18:46;;;;;;;14.53;11.12;;;;;;;24.89;68.21;99110.72;1741990;82;21003;-71
2021/07/20 05:21:32;;;;;;;17.67;11.48;;;;;;;24.92;67.83;99102.19;1751101;81;21501;-72
2021/07/20 05:23:58;;;;;;;11.93;10.72;;;;;;;25.01;67.50;99104.86;1739178;82;21391;-70
2021/07/20 05:26:26;;;;;;;13.58;10.55;;;;;;;25.14;66.91;99117.94;1732703;82;20984;-70
2021/07/20 05:28:53;;;;;;;12.88;10.40;;;;;;;25.24;66.24;99115.25;1737365;82;20999;-70
2021/07/20 05:31:24;;;;;;;13.13;10.55;;;;;;;25.33;65.87;99118.31;1745946;82;21030;-71
2021/07/20 05:33:50;;;;;;;13.93;11.05;;;;;;;25.30;65.46;99113.48;1733696;82;21014;-71
2021/07/20 05:36:17;;;;;;;13.95;10.55;;;;;;;25.29;65.60;99109.92;1723753;83;21054;-71
2021/07/20 05:38:45;;;;;;;12.95;10.15;;;;;;;25.44;65.23;99114.41;1723502;83;21079;-71
2021/07/20 05:41:13;;;;;;;11.05;9.75;;;;;;;25.52;65.11;99100.78;1744218;82;21031;-71
2021/07/20 05:43:41;;;;;;;13.25;10.58;;;;;;;25.61;64.59;99111.61;1735973;81;21023;-72
2021/07/20 05:46:07;;;;;;;14.53;11.57;;;;;;;25.51;64.27;99109.52;1723869;82;21050;-72
2021/07/20 05:48:35;;;;;;;12.05;10.18;;;;;;;25.42;64.51;99111.81;1731663;82;21099;-72
2021/07/20 05:51:04;;;;;;;11.65;10.45;;;;;;;25.46;64.62;99109.86;1700597;83;20967;-72
2021/07/20 05:53:32;;;;;;;17.57;10.70;;;;;;;25.65;64.36;99108.23;1723592;83;21063;-72
2021/07/20 05:56:17;;;;;;;11.53;10.18;;;;;;;25.75;63.41;99111.09;1723716;83;21624;-71
2021/07/20 05:58:45;;;;;;;13.95;9.63;;;;;;;25.75;63.41;99111.09;1723306;82;21082;-71
2021/07/20 06:01:12;;;;;;;14.03;9.88;;;;;;;25.82;63.87;99101.20;1723715;83;21003;-70
2021/07/20 06:03:40;;;;;;;13.62;11.20;;;;;;;25.96;63.60;99099.30;1653724;83;21039;-72
2021/07/20 06:06:06;;;;;;;12.33;10.72;;;;;;;26.07;62.87;99095.98;1723764;83;21448;-72
2021/07/20 06:08:34;;;;;;;15.15;10.08;;;;;;;26.08;62.67;99091.98;1730358;82;21019;-71
2021/07/20 06:11:03;;;;;;;13.62;10.75;;;;;;;26.22;63.21;99099.06;1751565;82;20990;-71
2021/07/20 06:13:40;;;;;;;11.73;9.70;;;;;;;26.27;62.17;99098.48;1738685;82;21039;-71
2021/07/20 06:16:07;;;;;;;12.85;10.30;;;;;;;26.41;62.58;99095.75;1748568;82;20928;-68
2021/07/20 06:18:37;;;;;;;14.10;10.18;;;;;;;26.48;61.84;99089.61;1731290;82;21526;-71
2021/07/20 06:21:09;;;;;;;12.88;10.50;;;;;;;26.52;62.65;99094.61;1750967;82;20959;-70
2021/07/20 06:23:40;;;;;;;13.60;10.03;;;;;;;26.74;61.16;99091.30;1753573;82;21421;-71
2021/07/20 06:26:06;;;;;;;16.55;10.72;;;;;;;26.92;61.41;99101.14;1753876;82;21450;-70
2021/07/20 06:28:33;;;;;;;13.88;10.93;;;;;;;27.05;60.47;99098.97;1752553;82;21039;-70
2021/07/20 06:31:00;;;;;;;11.53;9.08;;;;;;;27.07;60.15;99106.93;1703874;82;20972;-70
2021/07/20 06:33:26;;;;;;;13.35;9.50;;;;;;;27.01;60.77;99107.13;1740237;82;21018;-70
2021/07/20 06:35:52;;;;;;;12.53;10.20;;;;;;;27.05;60.49;99103.16;1749152;82;21345;-70
2021/07/20 06:38:21;;;;;;;12.80;9.95;;;;;;;27.13;59.89;99096.98;1736980;82;20995;-71
2021/07/20 06:40:50;;;;;;;14.23;9.45;;;;;;;27.14;59.98;99101.35;1749400;82;20967;-71
2021/07/20 06:43:17;;;;;;;13.35;10.08;;;;;;;27.28;60.55;99101.36;1753392;81;21098;-71
2021/07/20 06:45:46;;;;;;;10.88;9.00;;;;;;;27.42;58.74;99097.17;1737943;82;21007;-70
2021/07/20 06:48:14;;;;;;;11.78;9.05;;;;;;;27.45;59.26;99101.22;1742778;82;21064;-71
2021/07/20 06:50:41;;;;;;;12.20;9.40;;;;;;;27.51;58.62;99096.22;1753598;81;20971;-71
2021/07/20 06:53:08;;;;;;;11.57;9.00;;;;;;;27.58;57.60;99097.61;1751682;81;21110;-69
2021/07/20 06:55:37;;;;;;;10.15;8.78;;;;;;;27.63;57.94;99100.62;1717389;82;21008;-70
2021/07/20 06:58:06;;;;;;;10.65;9.25;;;;;;;27.66;57.90;99098.41;1728976;82;21075;-70
2021/07/20 07:00:32;;;;;;;11.30;8.15;;;;;;;27.71;57.94;99085.41;1735640;82;20951;-69
2021/07/20 07:02:59;;;;;;;10.23;7.92;;;;;;;27.98;57.17;99089.37;1742986;82;21075;-70
2021/07/20 07:05:28;;;;;;;11.68;9.63;;;;;;;28.07;56.28;99087.56;1720439;82;20960;-70
2021/07/20 07:07:56;;;;;;;11.70;8.90;;;;;;;28.02;56.24;99098.52;1718046;82;21051;-68
2021/07/20 07:10:22;;;;;;;13.08;8.78;;;;;;;27.94;56.56;99091.38;1729868;82;21450;-69
2021/07/20 07:12:51;;;;;;;12.33;8.48;;;;;;;27.89;55.89;99099.36;1719688;82;21067;-67
2021/07/20 07:15:18;;;;;;;14.25;9.00;;;;;;;28.05;56.21;99099.73;1731413;82;20999;-69
2021/07/20 07:17:48;;;;;;;13.50;8.98;;;;;;;28.27;55.91;99096.31;1729405;82;21546;-68
2021/07/20 07:20:18;;;;;;;14.95;10.00;;;;;;;28.50;55.22;99095.20;1717251;83;21004;-69
2021/07/20 07:22:45;;;;;;;11.43;8.88;;;;;;;28.61;54.87;99093.95;1745009;82;21530;-71
2021/07/20 07:25:13;;;;;;;14.73;8.40;;;;;;;28.69;54.68;99090.55;1718400;82;20975;-68
2021/07/20 07:27:40;;;;;;;13.05;8.98;;;;;;;28.67;53.47;99083.14;1717698;83;21011;-70
2021/07/20 07:30:08;;;;;;;12.03;8.88;;;;;;;28.53;54.46;99085.39;1718888;82;21003;-70
2021/07/20 07:32:34;;;;;;;11.20;9.28;;;;;;;28.58;54.06;99082.77;1723531;82;21542;-69
2021/07/20 07:35:01;;;;;;;12.40;8.75;;;;;;;28.63;54.78;99081.73;1687327;82;21512;-70
2021/07/20 07:37:28;;;;;;;15.13;9.05;;;;;;;28.71;53.98;99076.13;1741038;82;21007;-69
2021/07/20 07:39:55;;;;;;;13.75;9.43;;;;;;;28.79;54.25;99074.28;1723203;82;21059;-70
2021/07/20 07:42:21;;;;;;;11.28;9.45;;;;;;;28.70;53.13;99075.95;1725298;82;20992;-70
2021/07/20 07:44:49;;;;;;;12.33;9.50;;;;;;;28.64;53.33;99074.13;1746885;82;21027;-70
2021/07/20 07:47:15;;;;;;;12.43;8.85;;;;;;;28.74;53.35;99072.50;1747312;82;21011;-70
2021/07/20 07:49:45;;;;;;;11.35;8.75;;;;;;;28.86;53.70;99072.03;1747302;82;21490;-70
2021/07/20 07:52:12;;;;;;;10.98;9.38;;;;;;;28.98;53.23;99072.34;1746193;82;21569;-70
2021/07/20 07:54:40;;;;;;;13.32;9.05;;;;;;;29.06;52.06;99071.09;1729896;83;21015;-71
2021/07/20 07:57:07;;;;;;;11.43;9.23;;;;;;;28.99;51.86;99073.94;1675968;84;21604;-71
2021/07/20 07:59:33;;;;;;;9.38;8.13;;;;;;;29.04;51.67;99071.31;1696822;84;21005;-69
2021/07/20 08:02:00;;;;;;;13.93;9.35;;;;;;;29.15;51.50;99067.84;1678229;85;21102;-69
2021/07/20 08:04:26;;;;;;;14.00;10.28;;;;;;;29.14;51.47;99074.04;1692924;84;21023;-70
2021/07/20 08:06:55;;;;;;;30.12;17.87;;;;;;;29.11;51.69;99074.07;1698280;84;21073;-71
2021/07/20 08:09:23;;;;;;;22.40;14.83;;;;;;;29.01;52.32;99078.55;1693693;85;21044;-71
2021/07/20 08:11:49;;;;;;;24.92;20.15;;;;;;;28.83;53.14;99082.06;1700424;84;21047;-71
2021/07/20 08:14:16;;;;;;;12.10;10.85;;;;;;;28.86;52.54;99086.84;1702366;84;21059;-71
2021/07/20 08:16:46;;;;;;;11.88;9.15;;;;;;;28.83;51.81;99089.06;1706185;84;21110;-71
2021/07/20 08:19:14;;;;;;;10.05;8.63;;;;;;;28.84;51.77;99085.04;1705299;84;21023;-71
2021/07/20 08:21:42;;;;;;;10.88;8.90;;;;;;;28.93;52.28;99086.80;1719341;83;21096;-71
2021/07/20 08:24:09;;;;;;;10.82;8.78;;;;;;;29.12;51.87;99082.05;1698940;84;21511;-71
2021/07/20 08:26:47;;;;;;;17.48;12.68;;;;;;;29.24;52.27;99091.98;1698888;84;20983;-70
2021/07/20 08:29:17;;;;;;;11.25;8.83;;;;;;;29.33;52.66;99085.95;1670251;86;21093;-71
2021/07/20 08:31:47;;;;;;;11.12;8.48;;;;;;;29.11;52.24;99088.88;1694550;84;21022;-70
2021/07/20 08:34:14;;;;;;;12.13;8.40;;;;;;;28.75;52.17;99086.11;1675476;84;21036;-71
2021/07/20 08:36:41;;;;;;;11.88;9.03;;;;;;;28.54;52.51;99083.39;1678347;84;21865;-70
2021/07/20 08:39:08;;;;;;;12.60;8.80;;;;;;;28.44;52.86;99087.04;1699100;84;21042;-70
2021/07/20 08:42:23;;;;;;;11.33;10.13;;;;;;;28.38;53.31;99078.25;1715573;83;20974;-71
2021/07/20 08:45:20;;;;;;;10.70;8.40;;;;;;;28.53;52.99;99078.98;1728046;83;21797;-71
2021/07/20 08:48:07;;;;;;;;;;;;;;;28.82;52.56;99082.46;1730437;82;21046;-70
2021/07/20 08:51:07;;;;;;;10.95;8.40;;;;;;;29.04;53.02;99080.52;1727659;82;20097;-70
2021/07/20 08:53:47;;;;;;;18.35;10.78;;;;;;;29.39;52.35;99079.48;1670280;84;21069;-71
2021/07/20 08:56:14;;;;;;;13.40;10.53;;;;;;;29.76;50.22;99074.52;1689737;84;20998;-70
2021/07/20 08:58:57;;;;;;;15.93;10.20;;;;;;;29.82;49.49;99070.06;1696354;84;21575;-70
2021/07/20 09:01:55;;;;;;;13.35;9.88;;;;;;;29.97;49.55;99066.53;1672605;85;20977;-70
2021/07/20 09:04:32;;;;;;;11.40;8.93;;;;;;;30.07;48.52;99055.80;1694285;85;21080;-71
2021/07/20 09:07:16;;;;;;;11.83;9.03;;;;;;;29.95;48.01;99060.53;1695889;84;21069;-71
2021/07/20 09:09:47;;;;;;;13.85;9.75;;;;;;;29.85;47.71;99058.64;1695951;84;21049;-71
2021/07/20 09:12:25;;;;;;;11.65;8.48;;;;;;;29.97;48.90;99056.08;1678688;85;21589;-70
2021/07/20 09:15:11;;;;;;;10.80;8.03;;;;;;;30.08;48.42;99057.36;1678368;85;20999;-70
2021/07/20 09:18:09;;;;;;;10.65;8.40;;;;;;;30.19;47.93;99051.62;1678538;85;21608;-71
2021/07/20 09:20:37;;;;;;;11.18;7.75;;;;;;;30.16;47.34;99044.84;1678920;84;20995;-71
2021/07/20 09:23:26;;;;;;;11.85;8.73;;;;;;;30.00;47.33;99044.05;1696252;84;21026;-70
2021/07/20 09:26:22;;;;;;;14.33;9.68;;;;;;;30.25;48.12;99047.16;1696520;84;21049;-70
2021/07/20 09:29:12;;;;;;;13.05;9.53;;;;;;;30.52;46.92;99046.02;1696030;84;21530;-70
2021/07/20 09:32:11;;;;;;;12.88;8.68;;;;;;;30.55;46.53;99038.75;1696203;84;21037;-71
2021/07/20 09:34:51;;;;;;;10.32;8.55;;;;;;;30.68;46.41;99036.19;1678158;85;21514;-71
2021/07/20 09:37:28;;;;;;;10.00;9.00;;;;;;;30.82;45.71;99040.95;1695259;84;21065;-71
2021/07/20 09:40:29;;;;;;;10.65;8.60;;;;;;;30.93;45.69;99031.77;1725042;83;21077;-70
2021/07/20 09:43:08;;;;;;;10.65;9.40;;;;;;;31.19;44.50;99025.16;1725272;83;21649;-72
2021/07/20 09:45:41;;;;;;;13.05;8.68;;;;;;;31.49;43.08;99025.05;1725181;83;21655;-70
2021/07/20 09:48:23;;;;;;;8.90;7.75;;;;;;;31.67;42.72;99023.36;1698447;83;21026;-71
2021/07/20 09:51:10;;;;;;;8.93;7.33;;;;;;;31.56;43.18;99022.14;1711561;83;21050;-70
2021/07/20 09:53:49;;;;;;;10.93;7.35;;;;;;;31.31;43.89;99030.19;1714234;83;20982;-70
2021/07/20 09:56:30;;;;;;;12.30;7.53;;;;;;;31.03;43.11;99024.44;1710033;83;20974;-71
2021/07/20 09:59:41;;;;;;;11.68;6.95;;;;;;;30.82;44.09;99019.88;1690733;84;21075;-69
2021/07/20 10:02:41;;;;;;;9.75;8.08;;;;;;;30.76;45.81;99017.37;1691153;84;21564;-69
2021/07/20 10:05:34;;;;;;;10.53;7.65;;;;;;;30.50;45.29;99005.54;1678312;85;21118;-71
2021/07/20 10:09:52;;;;;;;11.97;7.78;;;;;;;30.22;46.93;99008.70;1812757;79;23584;-70
2021/07/20 10:12:24;;;;;;;11.40;8.13;;;;;;;29.95;47.69;99010.82;1730889;82;21058;-70
2021/07/20 10:14:56;;;;;;;10.15;8.25;;;;;;;29.67;47.80;98999.89;1739573;80;21042;-70
2021/07/20 10:17:46;;;;;;;10.93;8.40;;;;;;;29.58;47.88;99003.80;1731505;82;20999;-70
2021/07/20 10:20:16;;;;;;;14.70;10.25;;;;;;;29.38;48.39;99002.78;1731285;83;21058;-71
2021/07/20 10:23:25;;;;;;;15.03;10.25;;;;;;;29.24;49.55;98998.08;1731851;82;21159;-70
2021/07/20 10:26:16;;;;;;;12.43;9.75;;;;;;;29.36;48.88;98990.60;1747615;80;21019;-69
2021/07/20 10:28:59;;;;;;;12.10;9.93;;;;;;;29.63;48.87;98989.31;1747891;82;21549;-69
2021/07/20 10:31:32;;;;;;;11.22;9.68;;;;;;;29.84;47.54;98994.72;1664082;86;21066;-69
2021/07/20 10:34:10;;;;;;;12.45;9.65;;;;;;;30.03;47.75;98987.69;1675881;85;21023;-70
2021/07/20 10:36:57;;;;;;;13.22;9.23;;;;;;;30.10;48.23;98991.20;1693410;83;21038;-70
2021/07/20 10:39:29;;;;;;;10.10;9.05;;;;;;;30.20;47.96;98984.45;1696686;84;21093;-73
2021/07/20 10:42:22;;;;;;;12.85;9.70;;;;;;;30.36;47.01;98995.87;1688586;83;20994;-70
2021/07/20 10:45:10;;;;;;;10.82;9.70;;;;;;;30.43;46.00;98988.80;1690618;83;21079;-70
2021/07/20 10:47:54;;;;;;;10.82;8.98;;;;;;;30.53;46.03;98994.86;1713466;84;21040;-72
2021/07/20 10:50:46;;;;;;;11.70;9.48;;;;;;;30.50;46.13;98997.12;1700753;84;21067;-71
2021/07/20 10:53:49;;;;;;;11.57;9.10;;;;;;;30.40;47.02;98996.00;1698177;84;21074;-72
2021/07/20 10:56:33;;;;;;;12.25;9.13;;;;;;;30.32;47.60;99001.55;1701644;84;21052;-72
2021/07/20 10:59:37;;;;;;;12.15;8.05;;;;;;;30.11;47.38;98999.02;1699559;84;21044;-71
2021/07/20 11:02:21;;;;;;;11.03;8.40;;;;;;;29.92;47.23;98992.02;1699391;84;21061;-71
2021/07/20 11:04:59;;;;;;;9.80;8.25;;;;;;;29.63;47.92;98988.71;1698361;84;21647;-71
2021/07/20 11:07:50;;;;;;;12.35;8.50;;;;;;;29.40;48.72;98991.37;1694631;84;21177;-71
2021/07/20 11:10:30;;;;;;;9.15;8.25;;;;;;;29.22;48.44;98992.70;1690227;83;21075;-71
2021/07/20 11:13:00;;;;;;;11.33;8.13;;;;;;;29.00;49.98;98997.70;1667835;85;21046;-71
2021/07/20 11:15:27;;;;;;;11.38;8.55;;;;;;;28.81;51.19;99001.03;1734609;81;21047;-72
2021/07/20 11:17:53;;;;;;;12.85;8.53;;;;;;;28.58;51.28;99002.97;1703408;82;21051;-71
2021/07/20 11:20:21;;;;;;;12.90;8.60;;;;;;;28.32;52.03;98997.92;1688453;84;21040;-71
2021/07/20 11:22:48;;;;;;;10.05;8.08;;;;;;;27.98;52.68;98994.86;1710986;82;21633;-72
2021/07/20 11:25:15;;;;;;;14.87;9.28;;;;;;;27.59;53.72;98999.98;1736774;81;21043;-71
2021/07/20 11:27:44;;;;;;;12.47;8.63;;;;;;;27.28;54.87;98994.41;1710675;83;21059;-73
2021/07/20 11:30:16;;;;;;;11.60;8.55;;;;;;;27.01;55.91;99000.39;1723291;82;21032;-72
2021/07/20 11:32:48;;;;;;;12.37;8.45;;;;;;;26.88;56.61;98995.02;1735426;82;21037;-71
2021/07/20 11:35:19;;;;;;;12.80;8.80;;;;;;;26.76;57.16;98995.95;1724265;82;21542;-71
2021/07/20 11:37:48;;;;;;;9.88;8.10;;;;;;;26.62;57.98;99004.52;1709863;82;21464;-71
2021/07/20 11:40:28;;;;;;;11.57;8.78;;;;;;;26.36;58.80;98999.27;1713278;82;21637;-71
2021/07/20 11:43:02;;;;;;;12.50;9.10;;;;;;;26.12;60.12;98990.20;1720335;82;21071;-70
2021/07/20 11:45:38;;;;;;;13.10;8.88;;;;;;;26.11;60.98;98988.00;1663295;85;21031;-71
2021/07/20 11:48:13;;;;;;;13.43;8.90;;;;;;;26.14;61.42;98981.66;1724635;82;21541;-70
2021/07/20 11:51:10;;;;;;;12.85;8.60;;;;;;;26.15;62.22;98980.45;1705701;82;21114;-70
2021/07/20 11:54:02;;;;;;;12.35;8.78;;;;;;;26.18;62.46;98973.33;1736613;82;21090;-71